sensor_id;sensor_type;location;lat;lon;timestamp;temperature;humidity
22923;DHT22;11627;51.322;22.816;2024-03-06T00:02:14;6.40;99.90
22923;DHT22;11627;51.322;22.816;2024-03-06T00:04:41;6.40;99.90
22923;DHT22;11627;51.322;22.816;2024-03-06T00:07:07;6.40;99.90
22923;DHT22;11627;51.322;22.816;2024-03-06T00:09:33;6.40;99.90
22923;DHT22;11627;51.322;22.816;2024-03-06T00:11:59;6.40;99.90
22923;DHT22;11627;51.322;22.816;2024-03-06T00:14:25;6.40;99.90
22923;DHT22;11627;51.322;22.816;2024-03-06T00:16:53;6.40;99.90
22923;DHT22;11627;51.322;22.816;2024-03-06T00:19:21;6.40;99.90
22923;DHT22;11627;51.322;22.816;2024-03-06T00:21:49;6.40;99.90
22923;DHT22;11627;51.322;22.816;2024-03-06T00:24:17;6.40;99.90
22923;DHT22;11627;51.322;22.816;2024-03-06T00:26:44;6.40;99.90
22923;DHT22;11627;51.322;22.816;2024-03-06T00:29:11;6.40;99.90
22923;DHT22;11627;51.322;22.816;2024-03-06T00:31:43;6.30;99.90
22923;DHT22;11627;51.322;22.816;2024-03-06T00:34:13;6.40;99.90
22923;DHT22;11627;51.322;22.816;2024-03-06T00:36:45;6.40;99.90
22923;DHT22;11627;51.322;22.816;2024-03-06T00:39:11;6.30;99.90
22923;DHT22;11627;51.322;22.816;2024-03-06T00:41:40;6.30;99.90
22923;DHT22;11627;51.322;22.816;2024-03-06T00:44:07;6.30;99.90
22923;DHT22;11627;51.322;22.816;2024-03-06T00:46:34;6.20;99.90
22923;DHT22;11627;51.322;22.816;2024-03-06T00:49:10;6.30;99.90
22923;DHT22;11627;51.322;22.816;2024-03-06T00:54:04;6.20;99.90
22923;DHT22;11627;51.322;22.816;2024-03-06T00:56:30;6.20;99.90
22923;DHT22;11627;51.322;22.816;2024-03-06T00:58:57;6.20;99.90
22923;DHT22;11627;51.322;22.816;2024-03-06T01:01:25;6.20;99.90
22923;DHT22;11627;51.322;22.816;2024-03-06T01:03:54;6.20;99.90
22923;DHT22;11627;51.322;22.816;2024-03-06T01:06:21;6.20;99.90
22923;DHT22;11627;51.322;22.816;2024-03-06T01:08:46;6.20;99.90
22923;DHT22;11627;51.322;22.816;2024-03-06T01:11:12;6.20;99.90
22923;DHT22;11627;51.322;22.816;2024-03-06T01:13:41;6.10;99.90
22923;DHT22;11627;51.322;22.816;2024-03-06T01:16:08;6.10;99.90
22923;DHT22;11627;51.322;22.816;2024-03-06T01:18:35;6.10;99.90
22923;DHT22;11627;51.322;22.816;2024-03-06T01:21:02;6.10;99.90
22923;DHT22;11627;51.322;22.816;2024-03-06T01:23:30;6.10;99.90
22923;DHT22;11627;51.322;22.816;2024-03-06T01:25:58;6.10;99.90
22923;DHT22;11627;51.322;22.816;2024-03-06T01:28:26;6.10;99.90
22923;DHT22;11627;51.322;22.816;2024-03-06T01:30:53;6.10;99.90
22923;DHT22;11627;51.322;22.816;2024-03-06T01:33:20;6.00;99.90
22923;DHT22;11627;51.322;22.816;2024-03-06T01:35:50;6.00;99.90
22923;DHT22;11627;51.322;22.816;2024-03-06T01:38:19;5.90;99.90
22923;DHT22;11627;51.322;22.816;2024-03-06T01:40:44;6.00;99.90
22923;DHT22;11627;51.322;22.816;2024-03-06T01:43:25;5.90;99.90
22923;DHT22;11627;51.322;22.816;2024-03-06T01:45:52;5.90;99.90
22923;DHT22;11627;51.322;22.816;2024-03-06T01:48:26;5.90;99.90
22923;DHT22;11627;51.322;22.816;2024-03-06T01:50:56;5.90;99.90
22923;DHT22;11627;51.322;22.816;2024-03-06T01:53:23;5.90;99.90
22923;DHT22;11627;51.322;22.816;2024-03-06T01:55:56;5.90;99.90
22923;DHT22;11627;51.322;22.816;2024-03-06T01:58:26;5.90;99.90
22923;DHT22;11627;51.322;22.816;2024-03-06T02:00:52;5.80;99.90
22923;DHT22;11627;51.322;22.816;2024-03-06T02:03:20;5.70;99.90
22923;DHT22;11627;51.322;22.816;2024-03-06T02:05:49;5.80;99.90
22923;DHT22;11627;51.322;22.816;2024-03-06T02:08:16;5.70;99.90
22923;DHT22;11627;51.322;22.816;2024-03-06T02:10:45;5.60;99.90
22923;DHT22;11627;51.322;22.816;2024-03-06T02:13:14;5.60;99.90
22923;DHT22;11627;51.322;22.816;2024-03-06T02:15:40;5.70;99.90
22923;DHT22;11627;51.322;22.816;2024-03-06T02:18:07;5.60;99.90
22923;DHT22;11627;51.322;22.816;2024-03-06T02:20:34;5.60;99.90
22923;DHT22;11627;51.322;22.816;2024-03-06T02:23:01;5.60;99.90
22923;DHT22;11627;51.322;22.816;2024-03-06T02:25:28;5.50;99.90
22923;DHT22;11627;51.322;22.816;2024-03-06T02:27:54;5.60;99.90
22923;DHT22;11627;51.322;22.816;2024-03-06T02:30:22;5.50;99.90
22923;DHT22;11627;51.322;22.816;2024-03-06T02:32:51;5.50;99.90
22923;DHT22;11627;51.322;22.816;2024-03-06T02:35:18;5.50;99.90
22923;DHT22;11627;51.322;22.816;2024-03-06T02:37:44;5.50;99.90
22923;DHT22;11627;51.322;22.816;2024-03-06T02:40:10;5.50;99.90
22923;DHT22;11627;51.322;22.816;2024-03-06T02:42:37;5.40;99.90
22923;DHT22;11627;51.322;22.816;2024-03-06T02:45:05;5.40;99.90
22923;DHT22;11627;51.322;22.816;2024-03-06T02:47:32;5.40;99.90
22923;DHT22;11627;51.322;22.816;2024-03-06T02:49:58;5.40;99.90
22923;DHT22;11627;51.322;22.816;2024-03-06T02:52:25;5.40;99.90
22923;DHT22;11627;51.322;22.816;2024-03-06T02:54:51;5.40;99.90
22923;DHT22;11627;51.322;22.816;2024-03-06T02:57:17;5.40;99.90
22923;DHT22;11627;51.322;22.816;2024-03-06T02:59:43;5.30;99.90
22923;DHT22;11627;51.322;22.816;2024-03-06T03:02:09;5.30;99.90
22923;DHT22;11627;51.322;22.816;2024-03-06T03:04:36;5.30;99.90
22923;DHT22;11627;51.322;22.816;2024-03-06T03:07:04;5.30;99.90
22923;DHT22;11627;51.322;22.816;2024-03-06T03:09:32;5.30;99.90
22923;DHT22;11627;51.322;22.816;2024-03-06T03:11:58;5.20;99.90
22923;DHT22;11627;51.322;22.816;2024-03-06T03:14:25;5.20;99.90
22923;DHT22;11627;51.322;22.816;2024-03-06T03:16:53;5.20;99.90
22923;DHT22;11627;51.322;22.816;2024-03-06T03:19:19;5.10;99.90
22923;DHT22;11627;51.322;22.816;2024-03-06T03:21:45;5.10;99.90
22923;DHT22;11627;51.322;22.816;2024-03-06T03:24:11;5.10;99.90
22923;DHT22;11627;51.322;22.816;2024-03-06T03:26:37;5.10;99.90
22923;DHT22;11627;51.322;22.816;2024-03-06T03:29:03;5.20;99.90
22923;DHT22;11627;51.322;22.816;2024-03-06T03:31:33;5.10;99.90
22923;DHT22;11627;51.322;22.816;2024-03-06T03:34:00;5.10;99.90
22923;DHT22;11627;51.322;22.816;2024-03-06T03:36:28;5.10;99.90
22923;DHT22;11627;51.322;22.816;2024-03-06T03:38:53;5.10;99.90
22923;DHT22;11627;51.322;22.816;2024-03-06T03:41:20;5.10;99.90
22923;DHT22;11627;51.322;22.816;2024-03-06T03:43:46;5.10;99.90
22923;DHT22;11627;51.322;22.816;2024-03-06T03:46:14;5.00;99.90
22923;DHT22;11627;51.322;22.816;2024-03-06T03:48:43;5.00;99.90
22923;DHT22;11627;51.322;22.816;2024-03-06T03:51:10;5.00;99.90
22923;DHT22;11627;51.322;22.816;2024-03-06T03:53:36;5.00;99.90
22923;DHT22;11627;51.322;22.816;2024-03-06T03:56:07;4.90;99.90
22923;DHT22;11627;51.322;22.816;2024-03-06T03:58:33;5.00;99.90
22923;DHT22;11627;51.322;22.816;2024-03-06T04:01:00;4.90;99.90
22923;DHT22;11627;51.322;22.816;2024-03-06T04:03:27;4.90;99.90
22923;DHT22;11627;51.322;22.816;2024-03-06T04:05:53;4.90;99.90
22923;DHT22;11627;51.322;22.816;2024-03-06T04:08:21;4.90;99.90
22923;DHT22;11627;51.322;22.816;2024-03-06T04:10:50;4.90;99.90
22923;DHT22;11627;51.322;22.816;2024-03-06T04:13:19;4.90;99.90
22923;DHT22;11627;51.322;22.816;2024-03-06T04:15:47;4.90;99.90
22923;DHT22;11627;51.322;22.816;2024-03-06T04:18:13;4.90;99.90
22923;DHT22;11627;51.322;22.816;2024-03-06T04:20:40;4.90;99.90
22923;DHT22;11627;51.322;22.816;2024-03-06T04:23:09;4.80;99.90
22923;DHT22;11627;51.322;22.816;2024-03-06T04:25:36;4.80;99.90
22923;DHT22;11627;51.322;22.816;2024-03-06T04:28:02;4.80;99.90
22923;DHT22;11627;51.322;22.816;2024-03-06T04:30:31;4.70;99.90
22923;DHT22;11627;51.322;22.816;2024-03-06T04:33:01;4.70;99.90
22923;DHT22;11627;51.322;22.816;2024-03-06T04:35:28;4.70;99.90
22923;DHT22;11627;51.322;22.816;2024-03-06T04:37:57;4.70;99.90
22923;DHT22;11627;51.322;22.816;2024-03-06T04:40:24;4.60;99.90
22923;DHT22;11627;51.322;22.816;2024-03-06T04:42:51;4.60;99.90
22923;DHT22;11627;51.322;22.816;2024-03-06T04:45:17;4.50;99.90
22923;DHT22;11627;51.322;22.816;2024-03-06T04:47:45;4.60;99.90
22923;DHT22;11627;51.322;22.816;2024-03-06T04:50:13;4.20;99.90
22923;DHT22;11627;51.322;22.816;2024-03-06T04:52:43;4.50;99.90
22923;DHT22;11627;51.322;22.816;2024-03-06T04:55:17;4.50;99.90
22923;DHT22;11627;51.322;22.816;2024-03-06T04:57:48;4.60;99.90
22923;DHT22;11627;51.322;22.816;2024-03-06T05:00:15;4.60;99.90
22923;DHT22;11627;51.322;22.816;2024-03-06T05:02:41;4.50;99.90
22923;DHT22;11627;51.322;22.816;2024-03-06T05:05:08;4.50;99.90
22923;DHT22;11627;51.322;22.816;2024-03-06T05:07:36;4.50;99.90
22923;DHT22;11627;51.322;22.816;2024-03-06T05:12:28;4.50;99.90
22923;DHT22;11627;51.322;22.816;2024-03-06T05:14:55;4.40;99.90
22923;DHT22;11627;51.322;22.816;2024-03-06T05:17:22;4.40;99.90
22923;DHT22;11627;51.322;22.816;2024-03-06T05:19:49;4.40;99.90
22923;DHT22;11627;51.322;22.816;2024-03-06T05:22:15;4.40;99.90
22923;DHT22;11627;51.322;22.816;2024-03-06T05:24:42;4.40;99.90
22923;DHT22;11627;51.322;22.816;2024-03-06T05:27:10;4.50;99.90
22923;DHT22;11627;51.322;22.816;2024-03-06T05:29:43;4.40;99.90
22923;DHT22;11627;51.322;22.816;2024-03-06T05:32:11;4.40;99.90
22923;DHT22;11627;51.322;22.816;2024-03-06T05:34:38;4.30;99.90
22923;DHT22;11627;51.322;22.816;2024-03-06T05:37:07;4.30;99.90
22923;DHT22;11627;51.322;22.816;2024-03-06T05:39:34;4.00;99.90
22923;DHT22;11627;51.322;22.816;2024-03-06T05:42:01;4.30;99.90
22923;DHT22;11627;51.322;22.816;2024-03-06T05:44:36;4.30;99.90
22923;DHT22;11627;51.322;22.816;2024-03-06T05:47:03;4.30;99.90
22923;DHT22;11627;51.322;22.816;2024-03-06T05:49:36;4.40;99.90
22923;DHT22;11627;51.322;22.816;2024-03-06T05:52:02;4.30;99.90
22923;DHT22;11627;51.322;22.816;2024-03-06T05:54:28;4.40;99.90
22923;DHT22;11627;51.322;22.816;2024-03-06T05:56:58;4.40;99.90
22923;DHT22;11627;51.322;22.816;2024-03-06T05:59:25;4.40;99.90
22923;DHT22;11627;51.322;22.816;2024-03-06T06:01:53;4.40;99.90
22923;DHT22;11627;51.322;22.816;2024-03-06T06:04:20;4.30;99.90
22923;DHT22;11627;51.322;22.816;2024-03-06T06:06:48;4.30;99.90
22923;DHT22;11627;51.322;22.816;2024-03-06T06:09:14;4.40;99.90
22923;DHT22;11627;51.322;22.816;2024-03-06T06:11:44;4.40;99.90
22923;DHT22;11627;51.322;22.816;2024-03-06T06:14:10;4.40;99.90
22923;DHT22;11627;51.322;22.816;2024-03-06T06:16:38;4.40;99.90
22923;DHT22;11627;51.322;22.816;2024-03-06T06:19:08;4.50;99.90
22923;DHT22;11627;51.322;22.816;2024-03-06T06:21:35;4.50;99.90
22923;DHT22;11627;51.322;22.816;2024-03-06T06:24:04;4.50;99.90
22923;DHT22;11627;51.322;22.816;2024-03-06T06:26:31;4.50;99.90
22923;DHT22;11627;51.322;22.816;2024-03-06T06:28:57;4.50;99.90
22923;DHT22;11627;51.322;22.816;2024-03-06T06:31:25;4.60;99.90
22923;DHT22;11627;51.322;22.816;2024-03-06T06:33:53;4.60;99.90
22923;DHT22;11627;51.322;22.816;2024-03-06T06:36:19;4.60;99.90
22923;DHT22;11627;51.322;22.816;2024-03-06T06:38:47;4.50;99.90
22923;DHT22;11627;51.322;22.816;2024-03-06T06:41:14;4.50;99.90
22923;DHT22;11627;51.322;22.816;2024-03-06T06:43:42;4.40;99.90
22923;DHT22;11627;51.322;22.816;2024-03-06T06:46:08;4.40;99.90
22923;DHT22;11627;51.322;22.816;2024-03-06T06:48:36;4.50;99.90
22923;DHT22;11627;51.322;22.816;2024-03-06T06:51:03;4.50;99.90
22923;DHT22;11627;51.322;22.816;2024-03-06T06:53:30;4.50;99.90
22923;DHT22;11627;51.322;22.816;2024-03-06T06:55:57;4.50;99.90
22923;DHT22;11627;51.322;22.816;2024-03-06T06:58:25;4.50;99.90
22923;DHT22;11627;51.322;22.816;2024-03-06T07:00:54;4.50;99.90
22923;DHT22;11627;51.322;22.816;2024-03-06T07:03:20;4.50;99.90
22923;DHT22;11627;51.322;22.816;2024-03-06T07:05:48;4.60;99.90
22923;DHT22;11627;51.322;22.816;2024-03-06T07:08:14;4.50;99.90
22923;DHT22;11627;51.322;22.816;2024-03-06T07:10:40;4.60;99.90
22923;DHT22;11627;51.322;22.816;2024-03-06T07:13:07;4.60;99.90
22923;DHT22;11627;51.322;22.816;2024-03-06T07:15:33;4.50;99.90
22923;DHT22;11627;51.322;22.816;2024-03-06T07:20:26;4.50;99.90
22923;DHT22;11627;51.322;22.816;2024-03-06T07:22:55;4.60;99.90
22923;DHT22;11627;51.322;22.816;2024-03-06T07:25:24;4.60;99.90
22923;DHT22;11627;51.322;22.816;2024-03-06T07:27:52;4.60;99.90
22923;DHT22;11627;51.322;22.816;2024-03-06T07:30:19;5.00;99.90
22923;DHT22;11627;51.322;22.816;2024-03-06T07:32:50;4.50;99.90
22923;DHT22;11627;51.322;22.816;2024-03-06T07:35:18;4.50;99.90
22923;DHT22;11627;51.322;22.816;2024-03-06T07:37:48;4.50;99.90
22923;DHT22;11627;51.322;22.816;2024-03-06T07:40:17;4.50;99.90
22923;DHT22;11627;51.322;22.816;2024-03-06T07:42:57;4.50;99.90
22923;DHT22;11627;51.322;22.816;2024-03-06T07:45:27;4.50;99.90
22923;DHT22;11627;51.322;22.816;2024-03-06T07:47:53;4.50;99.90
22923;DHT22;11627;51.322;22.816;2024-03-06T07:50:22;4.50;99.90
22923;DHT22;11627;51.322;22.816;2024-03-06T07:52:50;4.50;99.90
22923;DHT22;11627;51.322;22.816;2024-03-06T07:55:18;4.40;99.90
22923;DHT22;11627;51.322;22.816;2024-03-06T07:57:47;4.50;99.90
22923;DHT22;11627;51.322;22.816;2024-03-06T08:00:19;4.40;99.90
22923;DHT22;11627;51.322;22.816;2024-03-06T08:02:47;4.50;99.90
22923;DHT22;11627;51.322;22.816;2024-03-06T08:05:18;4.40;99.90
22923;DHT22;11627;51.322;22.816;2024-03-06T08:07:45;4.50;99.90
22923;DHT22;11627;51.322;22.816;2024-03-06T08:10:12;4.60;99.90
22923;DHT22;11627;51.322;22.816;2024-03-06T08:12:44;4.40;99.90
22923;DHT22;11627;51.322;22.816;2024-03-06T08:15:14;4.60;99.90
22923;DHT22;11627;51.322;22.816;2024-03-06T08:17:43;4.40;99.90
22923;DHT22;11627;51.322;22.816;2024-03-06T08:20:12;4.40;99.90
22923;DHT22;11627;51.322;22.816;2024-03-06T08:22:41;4.40;99.90
22923;DHT22;11627;51.322;22.816;2024-03-06T08:25:13;4.50;99.90
22923;DHT22;11627;51.322;22.816;2024-03-06T08:27:41;4.50;99.90
22923;DHT22;11627;51.322;22.816;2024-03-06T08:30:10;4.50;99.90
22923;DHT22;11627;51.322;22.816;2024-03-06T08:32:38;4.40;99.90
22923;DHT22;11627;51.322;22.816;2024-03-06T08:35:11;4.40;99.90
22923;DHT22;11627;51.322;22.816;2024-03-06T08:37:39;4.40;99.90
22923;DHT22;11627;51.322;22.816;2024-03-06T08:40:10;4.40;99.90
22923;DHT22;11627;51.322;22.816;2024-03-06T08:42:41;4.40;99.90
22923;DHT22;11627;51.322;22.816;2024-03-06T08:45:08;4.30;99.90
22923;DHT22;11627;51.322;22.816;2024-03-06T08:47:35;4.40;99.90
22923;DHT22;11627;51.322;22.816;2024-03-06T08:50:01;4.30;99.90
22923;DHT22;11627;51.322;22.816;2024-03-06T08:52:29;5.50;99.90
22923;DHT22;11627;51.322;22.816;2024-03-06T08:54:56;4.40;99.90
22923;DHT22;11627;51.322;22.816;2024-03-06T08:57:22;4.40;99.90
22923;DHT22;11627;51.322;22.816;2024-03-06T08:59:49;4.30;99.90
22923;DHT22;11627;51.322;22.816;2024-03-06T09:02:19;4.30;99.90
22923;DHT22;11627;51.322;22.816;2024-03-06T09:04:52;4.10;99.90
22923;DHT22;11627;51.322;22.816;2024-03-06T09:07:20;4.20;99.90
22923;DHT22;11627;51.322;22.816;2024-03-06T09:09:51;4.10;99.90
22923;DHT22;11627;51.322;22.816;2024-03-06T09:12:21;4.10;99.90
22923;DHT22;11627;51.322;22.816;2024-03-06T09:14:50;4.10;99.90
22923;DHT22;11627;51.322;22.816;2024-03-06T09:17:18;4.10;99.90
22923;DHT22;11627;51.322;22.816;2024-03-06T09:19:44;4.10;99.90
22923;DHT22;11627;51.322;22.816;2024-03-06T09:22:11;4.20;99.90
22923;DHT22;11627;51.322;22.816;2024-03-06T09:24:39;4.20;99.90
22923;DHT22;11627;51.322;22.816;2024-03-06T09:27:06;4.10;99.90
22923;DHT22;11627;51.322;22.816;2024-03-06T09:29:32;4.20;99.90
22923;DHT22;11627;51.322;22.816;2024-03-06T09:31:59;4.10;99.90
22923;DHT22;11627;51.322;22.816;2024-03-06T09:34:30;4.10;99.90
22923;DHT22;11627;51.322;22.816;2024-03-06T09:36:57;4.00;99.90
22923;DHT22;11627;51.322;22.816;2024-03-06T09:39:25;4.00;99.90
22923;DHT22;11627;51.322;22.816;2024-03-06T09:41:52;4.10;99.90
22923;DHT22;11627;51.322;22.816;2024-03-06T09:44:20;4.00;99.90
22923;DHT22;11627;51.322;22.816;2024-03-06T09:46:49;4.10;99.90
22923;DHT22;11627;51.322;22.816;2024-03-06T09:49:18;4.10;99.90
22923;DHT22;11627;51.322;22.816;2024-03-06T09:51:49;4.10;99.90
22923;DHT22;11627;51.322;22.816;2024-03-06T09:54:17;4.10;99.90
22923;DHT22;11627;51.322;22.816;2024-03-06T09:56:58;4.10;99.90
22923;DHT22;11627;51.322;22.816;2024-03-06T09:59:26;4.10;99.90
22923;DHT22;11627;51.322;22.816;2024-03-06T10:01:58;4.10;99.90
22923;DHT22;11627;51.322;22.816;2024-03-06T10:04:28;4.10;99.90
22923;DHT22;11627;51.322;22.816;2024-03-06T10:06:58;4.20;99.90
22923;DHT22;11627;51.322;22.816;2024-03-06T10:09:26;4.20;99.90
22923;DHT22;11627;51.322;22.816;2024-03-06T10:11:53;4.10;99.90
22923;DHT22;11627;51.322;22.816;2024-03-06T10:14:19;4.20;99.90
22923;DHT22;11627;51.322;22.816;2024-03-06T10:16:59;4.10;99.90
22923;DHT22;11627;51.322;22.816;2024-03-06T10:19:27;4.10;99.90
22923;DHT22;11627;51.322;22.816;2024-03-06T10:21:59;4.10;99.90
22923;DHT22;11627;51.322;22.816;2024-03-06T10:24:26;4.10;99.90
22923;DHT22;11627;51.322;22.816;2024-03-06T10:26:57;4.10;99.90
22923;DHT22;11627;51.322;22.816;2024-03-06T10:29:29;4.00;99.90
22923;DHT22;11627;51.322;22.816;2024-03-06T10:31:59;4.00;99.90
22923;DHT22;11627;51.322;22.816;2024-03-06T10:34:28;4.00;99.90
22923;DHT22;11627;51.322;22.816;2024-03-06T10:37:13;4.00;99.90
22923;DHT22;11627;51.322;22.816;2024-03-06T10:39:42;4.00;99.90
22923;DHT22;11627;51.322;22.816;2024-03-06T10:42:13;4.00;99.90
22923;DHT22;11627;51.322;22.816;2024-03-06T10:44:49;4.00;99.90
22923;DHT22;11627;51.322;22.816;2024-03-06T10:47:19;4.00;99.90
22923;DHT22;11627;51.322;22.816;2024-03-06T10:49:45;4.00;99.90
22923;DHT22;11627;51.322;22.816;2024-03-06T10:52:14;4.00;99.90
22923;DHT22;11627;51.322;22.816;2024-03-06T10:54:43;3.90;99.90
22923;DHT22;11627;51.322;22.816;2024-03-06T10:57:14;3.90;99.90
22923;DHT22;11627;51.322;22.816;2024-03-06T10:59:42;3.90;99.90
22923;DHT22;11627;51.322;22.816;2024-03-06T11:02:09;3.90;99.90
22923;DHT22;11627;51.322;22.816;2024-03-06T11:04:40;3.90;99.90
22923;DHT22;11627;51.322;22.816;2024-03-06T11:07:08;3.90;99.90
22923;DHT22;11627;51.322;22.816;2024-03-06T11:09:36;3.90;99.90
22923;DHT22;11627;51.322;22.816;2024-03-06T11:12:06;3.80;99.90
22923;DHT22;11627;51.322;22.816;2024-03-06T11:14:33;3.80;99.90
22923;DHT22;11627;51.322;22.816;2024-03-06T11:17:13;3.80;99.90
22923;DHT22;11627;51.322;22.816;2024-03-06T11:28:28;3.70;99.90
22923;DHT22;11627;51.322;22.816;2024-03-06T11:31:02;3.70;99.90
22923;DHT22;11627;51.322;22.816;2024-03-06T11:37:10;3.70;99.90
22923;DHT22;11627;51.322;22.816;2024-03-06T11:39:38;3.70;99.90
22923;DHT22;11627;51.322;22.816;2024-03-06T11:42:06;3.70;99.90
22923;DHT22;11627;51.322;22.816;2024-03-06T11:44:53;3.80;99.90
22923;DHT22;11627;51.322;22.816;2024-03-06T11:47:24;3.90;99.90
22923;DHT22;11627;51.322;22.816;2024-03-06T11:49:53;3.80;99.90
22923;DHT22;11627;51.322;22.816;2024-03-06T11:52:19;3.80;99.90
22923;DHT22;11627;51.322;22.816;2024-03-06T11:54:45;3.80;99.90
22923;DHT22;11627;51.322;22.816;2024-03-06T11:57:11;3.80;99.90
22923;DHT22;11627;51.322;22.816;2024-03-06T11:59:41;3.80;99.90
22923;DHT22;11627;51.322;22.816;2024-03-06T12:02:07;3.80;99.90
22923;DHT22;11627;51.322;22.816;2024-03-06T12:04:36;3.80;99.90
22923;DHT22;11627;51.322;22.816;2024-03-06T12:07:05;4.10;99.90
22923;DHT22;11627;51.322;22.816;2024-03-06T12:09:34;3.80;99.90
22923;DHT22;11627;51.322;22.816;2024-03-06T12:12:02;3.80;99.90
22923;DHT22;11627;51.322;22.816;2024-03-06T12:16:57;3.80;99.90
22923;DHT22;11627;51.322;22.816;2024-03-06T12:19:39;3.80;99.90
22923;DHT22;11627;51.322;22.816;2024-03-06T12:22:11;3.90;99.90
22923;DHT22;11627;51.322;22.816;2024-03-06T12:24:39;3.80;99.90
22923;DHT22;11627;51.322;22.816;2024-03-06T12:27:07;3.70;99.90
22923;DHT22;11627;51.322;22.816;2024-03-06T12:29:35;3.70;99.90
22923;DHT22;11627;51.322;22.816;2024-03-06T12:32:02;3.70;99.90
22923;DHT22;11627;51.322;22.816;2024-03-06T12:34:30;3.80;99.90
22923;DHT22;11627;51.322;22.816;2024-03-06T12:37:18;3.90;99.90
22923;DHT22;11627;51.322;22.816;2024-03-06T12:39:45;3.90;99.90
22923;DHT22;11627;51.322;22.816;2024-03-06T12:42:13;3.80;99.90
22923;DHT22;11627;51.322;22.816;2024-03-06T12:44:41;3.80;99.90
22923;DHT22;11627;51.322;22.816;2024-03-06T12:49:36;4.10;99.90
22923;DHT22;11627;51.322;22.816;2024-03-06T12:52:03;3.80;99.90
22923;DHT22;11627;51.322;22.816;2024-03-06T12:58:02;3.90;99.90
22923;DHT22;11627;51.322;22.816;2024-03-06T13:02:59;4.00;99.90
22923;DHT22;11627;51.322;22.816;2024-03-06T13:05:24;3.90;99.90
22923;DHT22;11627;51.322;22.816;2024-03-06T13:07:51;4.00;99.90
22923;DHT22;11627;51.322;22.816;2024-03-06T13:10:18;3.80;99.90
22923;DHT22;11627;51.322;22.816;2024-03-06T13:12:46;4.00;99.90
22923;DHT22;11627;51.322;22.816;2024-03-06T13:17:39;4.00;99.90
22923;DHT22;11627;51.322;22.816;2024-03-06T13:20:07;3.90;99.90
22923;DHT22;11627;51.322;22.816;2024-03-06T13:22:38;3.70;99.90
22923;DHT22;11627;51.322;22.816;2024-03-06T13:25:06;3.70;99.90
22923;DHT22;11627;51.322;22.816;2024-03-06T13:29:59;3.70;99.90
22923;DHT22;11627;51.322;22.816;2024-03-06T13:32:26;3.80;99.90
22923;DHT22;11627;51.322;22.816;2024-03-06T13:34:53;4.00;99.90
22923;DHT22;11627;51.322;22.816;2024-03-06T13:37:21;3.90;99.90
22923;DHT22;11627;51.322;22.816;2024-03-06T13:39:50;3.70;99.90
22923;DHT22;11627;51.322;22.816;2024-03-06T13:42:16;3.90;99.90
22923;DHT22;11627;51.322;22.816;2024-03-06T13:44:43;3.80;99.90
22923;DHT22;11627;51.322;22.816;2024-03-06T13:47:16;3.70;99.90
22923;DHT22;11627;51.322;22.816;2024-03-06T13:49:43;3.90;99.90
22923;DHT22;11627;51.322;22.816;2024-03-06T13:52:10;3.60;99.90
22923;DHT22;11627;51.322;22.816;2024-03-06T13:54:42;3.90;99.90
22923;DHT22;11627;51.322;22.816;2024-03-06T13:57:09;3.70;99.90
22923;DHT22;11627;51.322;22.816;2024-03-06T13:59:36;3.80;99.90
22923;DHT22;11627;51.322;22.816;2024-03-06T14:02:07;3.90;99.90
22923;DHT22;11627;51.322;22.816;2024-03-06T14:04:34;4.60;99.90
22923;DHT22;11627;51.322;22.816;2024-03-06T14:07:03;4.00;99.90
22923;DHT22;11627;51.322;22.816;2024-03-06T14:09:30;3.90;99.90
22923;DHT22;11627;51.322;22.816;2024-03-06T14:11:57;3.60;99.90
22923;DHT22;11627;51.322;22.816;2024-03-06T14:19:18;3.70;99.90
22923;DHT22;11627;51.322;22.816;2024-03-06T14:21:45;3.70;99.90
22923;DHT22;11627;51.322;22.816;2024-03-06T14:24:12;3.50;99.90
22923;DHT22;11627;51.322;22.816;2024-03-06T14:29:06;3.70;99.90
22923;DHT22;11627;51.322;22.816;2024-03-06T14:36:29;3.80;99.90
22923;DHT22;11627;51.322;22.816;2024-03-06T14:38:57;3.70;99.90
22923;DHT22;11627;51.322;22.816;2024-03-06T14:41:24;3.70;99.90
22923;DHT22;11627;51.322;22.816;2024-03-06T14:43:51;3.50;99.90
22923;DHT22;11627;51.322;22.816;2024-03-06T14:48:44;3.70;99.90
22923;DHT22;11627;51.322;22.816;2024-03-06T14:51:10;3.50;99.90
22923;DHT22;11627;51.322;22.816;2024-03-06T14:53:37;3.50;99.90
22923;DHT22;11627;51.322;22.816;2024-03-06T14:56:04;3.60;99.90
22923;DHT22;11627;51.322;22.816;2024-03-06T14:58:31;3.60;99.90
22923;DHT22;11627;51.322;22.816;2024-03-06T15:03:25;3.40;99.90
22923;DHT22;11627;51.322;22.816;2024-03-06T15:05:51;3.60;99.90
22923;DHT22;11627;51.322;22.816;2024-03-06T15:08:19;3.70;99.90
22923;DHT22;11627;51.322;22.816;2024-03-06T15:15:39;3.40;99.90
22923;DHT22;11627;51.322;22.816;2024-03-06T15:24:16;3.60;99.90
22923;DHT22;11627;51.322;22.816;2024-03-06T15:26:43;3.50;99.90
22923;DHT22;11627;51.322;22.816;2024-03-06T15:29:10;3.80;99.90
22923;DHT22;11627;51.322;22.816;2024-03-06T15:31:40;3.60;99.90
22923;DHT22;11627;51.322;22.816;2024-03-06T15:34:07;3.40;99.90
22923;DHT22;11627;51.322;22.816;2024-03-06T15:39:01;3.50;99.90
22923;DHT22;11627;51.322;22.816;2024-03-06T15:41:26;3.30;99.90
22923;DHT22;11627;51.322;22.816;2024-03-06T15:43:53;3.50;99.90
22923;DHT22;11627;51.322;22.816;2024-03-06T15:46:21;3.90;99.90
22923;DHT22;11627;51.322;22.816;2024-03-06T15:48:49;3.60;99.90
22923;DHT22;11627;51.322;22.816;2024-03-06T15:53:44;3.80;99.90
22923;DHT22;11627;51.322;22.816;2024-03-06T15:56:13;3.50;99.90
22923;DHT22;11627;51.322;22.816;2024-03-06T15:58:40;3.70;99.90
22923;DHT22;11627;51.322;22.816;2024-03-06T16:01:07;3.30;99.90
22923;DHT22;11627;51.322;22.816;2024-03-06T16:08:28;3.60;99.90
22923;DHT22;11627;51.322;22.816;2024-03-06T16:10:57;3.40;99.90
22923;DHT22;11627;51.322;22.816;2024-03-06T16:13:27;3.50;99.90
22923;DHT22;11627;51.322;22.816;2024-03-06T16:15:55;3.60;99.90
22923;DHT22;11627;51.322;22.816;2024-03-06T16:18:22;3.50;99.90
22923;DHT22;11627;51.322;22.816;2024-03-06T16:20:49;3.50;99.90
22923;DHT22;11627;51.322;22.816;2024-03-06T16:23:16;3.50;99.90
22923;DHT22;11627;51.322;22.816;2024-03-06T16:25:43;3.70;99.90
22923;DHT22;11627;51.322;22.816;2024-03-06T16:30:36;3.50;99.90
22923;DHT22;11627;51.322;22.816;2024-03-06T16:33:05;3.30;99.90
22923;DHT22;11627;51.322;22.816;2024-03-06T16:35:33;3.40;99.90
22923;DHT22;11627;51.322;22.816;2024-03-06T16:38:01;3.50;99.90
22923;DHT22;11627;51.322;22.816;2024-03-06T16:40:30;3.50;99.90
22923;DHT22;11627;51.322;22.816;2024-03-06T16:42:57;3.70;99.90
22923;DHT22;11627;51.322;22.816;2024-03-06T16:45:23;3.50;99.90
22923;DHT22;11627;51.322;22.816;2024-03-06T16:47:50;3.40;90.20
22923;DHT22;11627;51.322;22.816;2024-03-06T16:50:16;3.40;97.30
22923;DHT22;11627;51.322;22.816;2024-03-06T16:52:45;3.50;97.70